Time;durP1;ratioP1;P1;durP2;ratioP2;P2;SDS_P1;SDS_P2;PMS_P1;PMS_P2;Temp;Humidity;BMP_temperature;BMP_pressure;BME280_temperature;BME280_humidity;BME280_pressure;Samples;Min_cycle;Max_cycle;Signal;HPM_P1;HPM_P2
2021/04/26 00:00:16;;;;;;;11.82;7.13;;;24.80;64.20;;;;;;5006503;28;20084;-79
2021/04/26 00:02:44;;;;;;;13.60;6.82;;;24.40;64.00;;;;;;5009905;28;20018;-78
2021/04/26 00:05:15;;;;;;;9.23;6.82;;;24.20;62.40;;;;;;5009675;28;20030;-77
2021/04/26 00:07:42;;;;;;;9.43;6.47;;;23.90;64.10;;;;;;5010767;28;20056;-78
2021/04/26 00:10:10;;;;;;;7.90;6.80;;;24.20;64.30;;;;;;5007052;28;20033;-78
2021/04/26 00:12:39;;;;;;;10.23;6.72;;;24.60;63.70;;;;;;5004371;28;20509;-78
2021/04/26 00:15:10;;;;;;;11.80;6.05;;;24.50;62.80;;;;;;5005565;28;20022;-78
2021/04/26 00:17:37;;;;;;;7.13;5.50;;;24.70;63.20;;;;;;5009086;28;20026;-79
2021/04/26 00:20:12;;;;;;;8.43;5.63;;;25.50;63.60;;;;;;5011919;28;20033;-78
2021/04/26 00:22:39;;;;;;;11.48;5.88;;;26.20;60.60;;;;;;5010026;28;20037;-80
2021/04/26 00:25:09;;;;;;;7.53;5.25;;;26.50;57.70;;;;;;5006820;28;20034;-78
2021/04/26 00:27:38;;;;;;;10.13;5.28;;;26.80;57.00;;;;;;5006270;28;20029;-77
2021/04/26 00:30:12;;;;;;;9.07;4.75;;;26.90;58.70;;;;;;5012414;28;20029;-78
2021/04/26 00:32:40;;;;;;;9.13;5.47;;;27.00;56.80;;;;;;5009556;28;20562;-78
2021/04/26 00:35:09;;;;;;;8.65;5.68;;;27.00;60.80;;;;;;5009441;28;20727;-78
2021/04/26 00:37:36;;;;;;;8.35;4.35;;;27.50;57.40;;;;;;5008245;28;20484;-77
2021/04/26 00:40:05;;;;;;;9.20;3.83;;;27.60;54.20;;;;;;5009249;28;20107;-80
2021/04/26 00:42:33;;;;;;;8.93;4.72;;;27.10;55.80;;;;;;5012952;28;20041;-81
2021/04/26 00:45:08;;;;;;;5.43;3.50;;;27.20;55.70;;;;;;5010324;28;20029;-82
2021/04/26 00:47:36;;;;;;;4.93;3.87;;;26.90;56.10;;;;;;5011519;28;20022;-80
2021/04/26 00:50:08;;;;;;;6.63;4.57;;;27.60;57.10;;;;;;5014898;28;20428;-80
2021/04/26 00:52:35;;;;;;;5.82;4.28;;;27.40;54.50;;;;;;5011897;28;20037;-79
2021/04/26 00:55:04;;;;;;;5.57;3.50;;;27.70;56.00;;;;;;5014059;28;20037;-79
2021/04/26 00:57:32;;;;;;;5.22;2.75;;;27.70;56.40;;;;;;5013537;28;20550;-77
2021/04/26 00:59:59;;;;;;;5.38;2.97;;;27.40;55.80;;;;;;5012569;28;20034;-75
2021/04/26 01:02:28;;;;;;;3.78;2.80;;;27.20;55.10;;;;;;5010022;28;20036;-79
2021/04/26 01:04:56;;;;;;;5.53;2.85;;;27.30;54.70;;;;;;5018410;28;20083;-77
2021/04/26 01:07:24;;;;;;;4.85;3.17;;;26.80;56.90;;;;;;5020298;28;20014;-75
2021/04/26 01:09:51;;;;;;;7.40;3.03;;;26.70;55.80;;;;;;5017927;28;20033;-78
2021/04/26 01:12:43;;;;;;;5.32;3.55;;;27.20;58.30;;;;;;5021278;28;20041;-78
2021/04/26 01:15:16;;;;;;;4.70;3.10;;;27.40;56.50;;;;;;5017306;28;20066;-80
2021/04/26 01:17:49;;;;;;;5.57;4.35;;;27.90;54.10;;;;;;5012495;28;20116;-78
2021/04/26 01:20:51;;;;;;;6.13;3.45;;;27.40;53.90;;;;;;5012993;28;20034;-77
2021/04/26 01:23:39;;;;;;;9.80;3.95;;;27.60;54.00;;;;;;5008724;28;20563;-78
2021/04/26 01:26:09;;;;;;;6.75;3.97;;;27.20;52.30;;;;;;5010118;28;20389;-79
2021/04/26 01:28:56;;;;;;;4.70;3.20;;;27.30;53.50;;;;;;5009372;28;20507;-78
2021/04/26 01:31:44;;;;;;;4.32;3.17;;;27.70;55.50;;;;;;5009557;28;20049;-78
2021/04/26 01:34:13;;;;;;;5.70;3.67;;;27.70;57.70;;;;;;5005123;28;20018;-78
2021/04/26 01:36:41;;;;;;;4.85;3.40;;;28.30;52.60;;;;;;5007766;28;20114;-79
2021/04/26 01:39:10;;;;;;;4.85;4.30;;;28.90;52.00;;;;;;5006328;28;20108;-79
2021/04/26 01:41:39;;;;;;;6.82;3.60;;;28.30;53.00;;;;;;5008547;28;20035;-77
2021/04/26 01:44:07;;;;;;;3.95;3.17;;;28.70;52.70;;;;;;5013584;28;20060;-77
2021/04/26 01:46:35;;;;;;;5.30;3.97;;;28.60;48.50;;;;;;5011114;28;20045;-79
2021/04/26 01:49:03;;;;;;;6.63;3.83;;;29.20;49.80;;;;;;5007745;28;20068;-79
2021/04/26 01:51:32;;;;;;;4.88;3.55;;;29.10;50.20;;;;;;5011198;28;20476;-80
2021/04/26 01:54:01;;;;;;;5.07;3.38;;;28.80;47.70;;;;;;5012554;28;20109;-80
2021/04/26 01:56:33;;;;;;;6.38;4.28;;;28.10;50.80;;;;;;5008028;28;20025;-79
2021/04/26 01:59:03;;;;;;;8.60;4.30;;;28.00;50.70;;;;;;5004849;28;20064;-80
2021/04/26 02:01:31;;;;;;;4.20;3.30;;;27.90;50.50;;;;;;5006991;28;20081;-81
2021/04/26 02:04:01;;;;;;;4.97;3.70;;;27.70;50.50;;;;;;5006982;28;20325;-84
2021/04/26 02:06:30;;;;;;;6.53;2.97;;;28.40;49.40;;;;;;5008438;28;20034;-81
2021/04/26 02:08:59;;;;;;;5.88;3.30;;;28.60;48.90;;;;;;5012935;28;20030;-84
2021/04/26 02:11:29;;;;;;;10.55;3.33;;;28.90;48.70;;;;;;5009867;28;20033;-81
2021/04/26 02:13:57;;;;;;;4.38;3.30;;;29.20;47.80;;;;;;5014006;28;20038;-81
2021/04/26 02:16:25;;;;;;;5.15;3.75;;;29.10;44.50;;;;;;5005400;28;20064;-83
2021/04/26 02:18:52;;;;;;;5.90;3.63;;;28.80;49.60;;;;;;5008363;28;20026;-88
2021/04/26 02:21:20;;;;;;;6.10;3.97;;;29.10;48.90;;;;;;5003760;28;20048;-82
2021/04/26 02:23:48;;;;;;;6.57;3.60;;;29.40;46.40;;;;;;4997494;28;20432;-83
2021/04/26 02:26:15;;;;;;;6.38;3.63;;;29.50;48.90;;;;;;5011948;28;20266;-80
2021/04/26 02:28:42;;;;;;;4.50;3.50;;;29.60;48.20;;;;;;5011609;28;20022;-82
2021/04/26 02:31:16;;;;;;;7.20;3.58;;;30.00;46.20;;;;;;5011255;28;21191;-83
2021/04/26 02:34:04;;;;;;;4.40;2.50;;;29.60;44.60;;;;;;5011458;28;20025;-82
2021/04/26 02:36:40;;;;;;;4.18;3.13;;;29.40;45.80;;;;;;5010091;28;20041;-82
2021/04/26 02:39:08;;;;;;;4.22;3.03;;;29.50;47.40;;;;;;5020795;28;20034;-82
2021/04/26 02:41:41;;;;;;;7.72;3.95;;;29.60;44.00;;;;;;5019493;28;20045;-81
2021/04/26 02:44:24;;;;;;;5.72;3.10;;;29.40;46.80;;;;;;5010648;28;20109;-82
2021/04/26 02:47:05;;;;;;;6.53;3.88;;;29.20;46.00;;;;;;5007793;28;20038;-82
2021/04/26 02:49:33;;;;;;;7.18;3.42;;;28.80;45.50;;;;;;5007679;28;20065;-81
2021/04/26 02:52:02;;;;;;;7.00;3.92;;;28.00;46.50;;;;;;5009299;28;20041;-83
2021/04/26 02:54:29;;;;;;;5.18;3.65;;;28.00;46.00;;;;;;5004257;28;20038;-83
2021/04/26 02:56:58;;;;;;;7.65;3.22;;;28.10;46.00;;;;;;5009644;28;20045;-82
2021/04/26 02:59:26;;;;;;;3.47;2.78;;;28.10;48.00;;;;;;5010026;28;20104;-82
2021/04/26 03:01:54;;;;;;;5.07;3.17;;;28.20;46.60;;;;;;5011948;28;20050;-83
2021/04/26 03:04:23;;;;;;;4.25;3.10;;;28.40;44.80;;;;;;5009598;28;20029;-83
2021/04/26 03:06:52;;;;;;;7.25;3.20;;;28.20;45.20;;;;;;5008656;28;20049;-83
2021/04/26 03:09:22;;;;;;;4.35;2.78;;;28.40;46.30;;;;;;5011398;28;20053;-83
2021/04/26 03:11:54;;;;;;;4.40;3.47;;;28.00;48.00;;;;;;5009125;28;20073;-83
2021/04/26 03:14:21;;;;;;;7.78;3.60;;;28.00;46.00;;;;;;5010869;28;20034;-83
2021/04/26 03:16:50;;;;;;;3.38;2.20;;;28.50;47.40;;;;;;5009684;28;20452;-82
2021/04/26 03:19:18;;;;;;;6.53;3.58;;;28.60;44.50;;;;;;5012732;28;20473;-83
2021/04/26 03:21:48;;;;;;;5.75;4.72;;;28.50;46.20;;;;;;5014351;28;20029;-83
2021/04/26 03:24:19;;;;;;;3.58;2.72;;;28.20;44.50;;;;;;5025651;28;20048;-84
2021/04/26 03:27:11;;;;;;;4.13;2.88;;;28.00;44.20;;;;;;5015458;28;20473;-82
2021/04/26 03:29:39;;;;;;;5.50;2.63;;;27.80;44.30;;;;;;5014062;28;20376;-82
2021/04/26 03:32:07;;;;;;;3.78;2.88;;;27.80;44.90;;;;;;5008411;28;20124;-82
2021/04/26 03:34:36;;;;;;;7.80;2.80;;;27.80;44.90;;;;;;5003827;28;20480;-83
2021/04/26 03:37:04;;;;;;;4.82;3.05;;;27.90;44.20;;;;;;5010271;28;20033;-82
2021/04/26 03:39:31;;;;;;;5.65;3.70;;;27.40;44.10;;;;;;5010213;28;20107;-75
2021/04/26 03:41:59;;;;;;;3.88;2.65;;;27.20;45.10;;;;;;5009198;28;20038;-73
2021/04/26 03:44:26;;;;;;;7.05;2.83;;;26.90;45.80;;;;;;5010125;28;20018;-76
2021/04/26 03:46:59;;;;;;;4.57;3.13;;;26.10;47.20;;;;;;5021164;28;20037;-75
2021/04/26 03:49:27;;;;;;;5.63;3.25;;;25.80;46.80;;;;;;5010288;28;20091;-73
2021/04/26 03:51:54;;;;;;;7.00;2.90;;;25.50;48.80;;;;;;5007574;28;20049;-74
2021/04/26 03:54:23;;;;;;;4.10;2.92;;;25.30;48.70;;;;;;5003636;28;20025;-75
2021/04/26 03:56:51;;;;;;;5.32;3.38;;;25.30;47.70;;;;;;5009745;28;20033;-76
2021/04/26 03:59:19;;;;;;;3.45;2.83;;;25.90;49.50;;;;;;5007296;28;20022;-76
2021/04/26 04:01:46;;;;;;;6.93;3.28;;;26.30;46.70;;;;;;5004325;28;20084;-73
2021/04/26 04:04:14;;;;;;;4.82;2.50;;;26.50;46.90;;;;;;5006511;28;20048;-74
2021/04/26 04:06:41;;;;;;;5.65;3.22;;;26.60;46.10;;;;;;5010732;28;20034;-74
2021/04/26 04:09:09;;;;;;;4.78;3.05;;;26.60;46.10;;;;;;5007893;28;20037;-74
2021/04/26 04:11:37;;;;;;;6.47;3.15;;;26.50;46.80;;;;;;5008053;28;20042;-73
2021/04/26 04:14:05;;;;;;;4.85;3.38;;;26.30;46.50;;;;;;5010916;28;20057;-74
2021/04/26 04:16:33;;;;;;;8.50;3.28;;;25.90;46.50;;;;;;5004514;28;20056;-74
2021/04/26 04:19:01;;;;;;;7.57;3.78;;;25.70;47.10;;;;;;5006056;28;20029;-75
2021/04/26 04:21:28;;;;;;;4.40;2.65;;;25.60;47.00;;;;;;5011340;28;20415;-76
2021/04/26 04:23:56;;;;;;;4.78;3.17;;;25.60;47.80;;;;;;5012908;28;20484;-77
2021/04/26 04:26:23;;;;;;;3.60;2.85;;;25.40;47.60;;;;;;5009586;28;20286;-76
2021/04/26 04:28:50;;;;;;;4.40;2.60;;;25.50;48.30;;;;;;5010769;28;20068;-76
2021/04/26 04:31:18;;;;;;;7.97;4.03;;;25.50;48.70;;;;;;5013197;28;20452;-76
2021/04/26 04:33:45;;;;;;;2.85;2.58;;;25.50;49.70;;;;;;5011189;28;20052;-75
2021/04/26 04:36:13;;;;;;;3.75;2.47;;;25.40;47.60;;;;;;5010764;28;21499;-75
2021/04/26 04:38:40;;;;;;;5.00;2.40;;;25.20;48.90;;;;;;5011752;28;20121;-76
2021/04/26 04:41:07;;;;;;;5.05;3.03;;;25.50;50.50;;;;;;5011904;28;20500;-74
2021/04/26 04:43:38;;;;;;;10.20;3.47;;;25.60;49.00;;;;;;5013116;28;20131;-75
2021/04/26 04:46:06;;;;;;;6.20;3.05;;;25.50;47.60;;;;;;5014041;28;20026;-74
2021/04/26 04:48:34;;;;;;;6.53;2.88;;;25.70;49.90;;;;;;5012537;28;20034;-75
2021/04/26 04:51:02;;;;;;;6.70;3.25;;;25.80;48.70;;;;;;5009999;28;20044;-77
2021/04/26 04:53:29;;;;;;;2.83;2.15;;;25.50;48.50;;;;;;5010738;28;20084;-77
2021/04/26 04:55:56;;;;;;;4.15;3.05;;;25.50;49.20;;;;;;5010060;28;20816;-76
2021/04/26 04:58:24;;;;;;;5.68;3.35;;;25.50;50.10;;;;;;5013290;28;20026;-76
2021/04/26 05:00:51;;;;;;;4.88;2.88;;;25.40;48.70;;;;;;5009680;28;20028;-76
2021/04/26 05:03:19;;;;;;;6.90;2.78;;;25.20;48.60;;;;;;5013414;28;20038;-76
2021/04/26 05:05:46;;;;;;;5.75;3.00;;;24.90;48.90;;;;;;5011399;28;20037;-78
2021/04/26 05:08:13;;;;;;;4.50;2.75;;;24.70;50.00;;;;;;5010188;28;20049;-77
2021/04/26 05:10:41;;;;;;;7.30;3.30;;;24.80;50.60;;;;;;5013465;28;20030;-75
2021/04/26 05:13:09;;;;;;;6.07;3.15;;;24.70;50.50;;;;;;5008334;28;20443;-74
2021/04/26 05:15:36;;;;;;;3.85;2.63;;;24.70;50.90;;;;;;5013631;28;20070;-76
2021/04/26 05:18:04;;;;;;;5.97;3.20;;;24.70;49.80;;;;;;5011045;28;20034;-74
2021/04/26 05:20:32;;;;;;;4.63;2.63;;;24.50;50.10;;;;;;5012995;28;20057;-76
2021/04/26 05:22:59;;;;;;;3.72;2.67;;;24.50;50.10;;;;;;5010601;28;20108;-75
2021/04/26 05:25:27;;;;;;;8.50;2.88;;;24.60;51.40;;;;;;5011962;28;20018;-75
2021/04/26 05:27:54;;;;;;;5.30;2.85;;;24.50;50.30;;;;;;5009939;28;20065;-74
2021/04/26 05:30:22;;;;;;;4.65;2.65;;;24.50;51.10;;;;;;5009103;28;20472;-75
2021/04/26 05:32:49;;;;;;;6.63;2.90;;;24.70;51.10;;;;;;5006521;28;20073;-74
2021/04/26 05:35:17;;;;;;;3.92;3.15;;;24.80;51.10;;;;;;5007464;28;20748;-73
2021/04/26 05:37:45;;;;;;;7.40;3.47;;;24.80;50.80;;;;;;5008408;28;20068;-73
2021/04/26 05:40:13;;;;;;;2.83;2.42;;;24.90;51.20;;;;;;5010463;28;20030;-74
2021/04/26 05:42:40;;;;;;;3.05;2.78;;;25.00;50.70;;;;;;5004616;28;20026;-75
2021/04/26 05:45:08;;;;;;;9.52;2.60;;;25.10;50.20;;;;;;5008684;28;20385;-74
2021/04/26 05:47:36;;;;;;;4.93;2.88;;;25.20;50.10;;;;;;5006652;28;20036;-73
2021/04/26 05:50:04;;;;;;;4.72;2.67;;;25.00;49.70;;;;;;5007451;28;20022;-74
2021/04/26 05:52:32;;;;;;;3.78;2.40;;;25.10;50.90;;;;;;5007481;28;20029;-74
2021/04/26 05:54:59;;;;;;;3.03;2.60;;;25.00;48.80;;;;;;5009007;28;20037;-73
2021/04/26 05:57:27;;;;;;;4.80;2.65;;;25.10;50.90;;;;;;5006769;28;20030;-73
2021/04/26 05:59:54;;;;;;;4.25;2.92;;;24.80;48.80;;;;;;5003023;28;20022;-73
2021/04/26 06:02:21;;;;;;;6.13;2.83;;;24.40;49.60;;;;;;5009189;28;20547;-74
2021/04/26 06:04:49;;;;;;;5.47;3.03;;;24.40;50.60;;;;;;5008080;28;20041;-75
2021/04/26 06:07:16;;;;;;;3.53;2.70;;;24.40;51.50;;;;;;5005324;28;20026;-75
2021/04/26 06:09:43;;;;;;;6.53;2.95;;;24.30;50.80;;;;;;5007406;28;20472;-73
2021/04/26 06:12:11;;;;;;;5.90;3.05;;;24.40;51.40;;;;;;5006689;28;20041;-73
2021/04/26 06:14:38;;;;;;;5.93;2.58;;;24.50;52.30;;;;;;5007286;28;20014;-74
2021/04/26 06:17:06;;;;;;;5.53;2.67;;;24.50;51.20;;;;;;5008968;28;20054;-75
2021/04/26 06:19:33;;;;;;;3.47;2.05;;;24.50;52.10;;;;;;5005477;28;20014;-74
2021/04/26 06:22:00;;;;;;;4.32;3.25;;;24.50;51.50;;;;;;5006978;28;20467;-74
2021/04/26 06:24:29;;;;;;;3.20;2.90;;;24.40;52.50;;;;;;5008998;28;20384;-74
2021/04/26 06:26:56;;;;;;;3.38;3.08;;;24.20;51.70;;;;;;5005173;28;20100;-73
2021/04/26 06:29:24;;;;;;;5.05;2.35;;;24.10;53.10;;;;;;5007722;28;20026;-75
2021/04/26 06:31:51;;;;;;;5.80;2.63;;;23.90;53.60;;;;;;5003896;28;20103;-73
2021/04/26 06:34:18;;;;;;;5.60;3.10;;;23.80;55.80;;;;;;5005814;28;20379;-73
2021/04/26 06:36:46;;;;;;;5.45;2.70;;;23.60;54.60;;;;;;5007363;28;20037;-73
2021/04/26 06:39:13;;;;;;;3.67;2.50;;;23.50;54.90;;;;;;5007374;28;20018;-74
2021/04/26 06:41:41;;;;;;;6.80;3.15;;;23.30;54.70;;;;;;5005443;28;20025;-75
2021/04/26 06:44:08;;;;;;;3.40;2.28;;;23.20;55.30;;;;;;5008250;28;20084;-74
2021/04/26 06:46:35;;;;;;;4.78;3.20;;;23.10;55.10;;;;;;5008729;28;20022;-74
2021/04/26 06:49:03;;;;;;;10.02;3.42;;;23.00;55.10;;;;;;5007806;28;20030;-74
2021/04/26 06:51:30;;;;;;;7.72;2.70;;;22.90;55.50;;;;;;5007864;28;20096;-73
2021/04/26 06:53:58;;;;;;;4.10;2.85;;;22.80;56.40;;;;;;5009236;28;20025;-74
2021/04/26 06:56:26;;;;;;;5.18;2.80;;;22.80;56.60;;;;;;5005051;28;20117;-74
2021/04/26 06:58:53;;;;;;;4.10;2.83;;;22.80;56.00;;;;;;5006050;28;20125;-74
2021/04/26 07:01:21;;;;;;;5.20;2.92;;;22.80;56.10;;;;;;5008800;28;20026;-74
2021/04/26 07:03:48;;;;;;;4.50;3.15;;;22.70;56.40;;;;;;5004675;28;20092;-75
2021/04/26 07:06:15;;;;;;;5.90;2.88;;;22.60;57.10;;;;;;5005134;28;20377;-74
2021/04/26 07:08:43;;;;;;;6.57;4.07;;;22.30;57.90;;;;;;5005822;28;20920;-74
2021/04/26 07:11:10;;;;;;;5.60;3.00;;;22.20;58.90;;;;;;5004292;28;20041;-74
2021/04/26 07:13:38;;;;;;;7.38;4.03;;;22.10;60.40;;;;;;5005544;28;20025;-75
2021/04/26 07:16:05;;;;;;;5.00;3.08;;;21.90;60.70;;;;;;5005146;28;20053;-75
2021/04/26 07:18:32;;;;;;;6.38;3.70;;;21.80;61.50;;;;;;5005423;28;20032;-75
2021/04/26 07:21:00;;;;;;;4.43;3.50;;;21.70;61.00;;;;;;5006915;28;20725;-75
2021/04/26 07:23:27;;;;;;;6.10;3.67;;;21.50;61.20;;;;;;5005709;28;20018;-76
2021/04/26 07:25:55;;;;;;;8.90;2.97;;;21.40;62.10;;;;;;5005566;28;20615;-74
2021/04/26 07:28:22;;;;;;;6.80;3.40;;;21.40;62.70;;;;;;5007061;28;20057;-74
2021/04/26 07:30:49;;;;;;;6.85;3.28;;;21.30;62.70;;;;;;5004973;28;20037;-76
2021/04/26 07:33:17;;;;;;;4.80;3.08;;;21.30;64.00;;;;;;5006956;28;20057;-77
2021/04/26 07:35:44;;;;;;;3.72;2.85;;;21.20;64.10;;;;;;5004014;28;20092;-80
2021/04/26 07:38:12;;;;;;;5.22;3.17;;;21.10;64.30;;;;;;5005907;28;20472;-80
2021/04/26 07:40:39;;;;;;;4.70;3.47;;;21.00;64.50;;;;;;5005364;28;20026;-76
2021/04/26 07:43:07;;;;;;;4.13;2.47;;;20.90;64.70;;;;;;5002638;28;20031;-74
2021/04/26 07:45:35;;;;;;;13.35;5.63;;;20.90;64.40;;;;;;5005415;28;20026;-79
2021/04/26 07:48:04;;;;;;;9.43;5.07;;;20.70;64.30;;;;;;5005816;28;20572;-76
2021/04/26 07:50:32;;;;;;;16.25;7.50;;;20.80;64.80;;;;;;5006467;28;20026;-79
2021/04/26 07:53:02;;;;;;;12.45;7.70;;;20.70;66.60;;;;;;5008754;28;20132;-83
2021/04/26 07:55:29;;;;;;;13.73;8.82;;;20.40;68.90;;;;;;5006330;28;20037;-85
2021/04/26 07:57:57;;;;;;;20.95;8.63;;;20.20;70.60;;;;;;5005395;28;20113;-85
2021/04/26 08:00:24;;;;;;;15.38;8.85;;;20.20;72.10;;;;;;5007764;28;20084;-82
2021/04/26 08:02:52;;;;;;;12.85;8.52;;;20.00;73.50;;;;;;5010109;28;20022;-84
2021/04/26 08:05:19;;;;;;;16.15;9.20;;;19.90;74.60;;;;;;5006075;28;20032;-83
2021/04/26 08:07:47;;;;;;;11.77;9.07;;;19.80;75.80;;;;;;5007401;28;20137;-81
2021/04/26 08:10:15;;;;;;;17.15;10.25;;;19.80;76.70;;;;;;5006349;28;20057;-83
2021/04/26 08:12:42;;;;;;;17.73;10.20;;;19.70;77.30;;;;;;5004319;28;20067;-81
2021/04/26 08:15:11;;;;;;;14.20;9.50;;;19.70;78.20;;;;;;5004802;28;20132;-85
2021/04/26 08:17:39;;;;;;;13.88;10.35;;;19.60;79.10;;;;;;5006140;28;20026;-87
2021/04/26 08:20:08;;;;;;;18.33;9.70;;;19.50;79.40;;;;;;5006315;28;20026;-85
2021/04/26 08:22:35;;;;;;;14.30;9.15;;;19.40;79.80;;;;;;5009365;28;20029;-83
2021/04/26 08:25:03;;;;;;;14.07;9.32;;;19.40;80.30;;;;;;5005961;28;20033;-85
2021/04/26 08:27:31;;;;;;;11.85;8.98;;;19.30;80.70;;;;;;5001961;28;20033;-80
2021/04/26 08:29:58;;;;;;;16.10;8.43;;;19.30;81.00;;;;;;5007077;28;20033;-81
2021/04/26 08:32:26;;;;;;;11.05;8.02;;;19.20;81.20;;;;;;5015312;28;20089;-84
2021/04/26 08:34:54;;;;;;;15.30;9.65;;;19.20;81.50;;;;;;5021705;28;20052;-82
2021/04/26 08:37:23;;;;;;;16.33;8.27;;;19.20;81.70;;;;;;5018782;28;20381;-81
2021/04/26 08:39:50;;;;;;;10.63;7.25;;;19.20;82.10;;;;;;5016057;28;20022;-84
2021/04/26 08:42:19;;;;;;;13.75;8.43;;;19.10;82.20;;;;;;5010353;28;20034;-84
2021/04/26 08:44:47;;;;;;;12.95;7.75;;;19.00;82.70;;;;;;5009958;28;20044;-83
2021/04/26 08:47:17;;;;;;;11.88;7.80;;;19.00;83.10;;;;;;5012631;28;20488;-82
2021/04/26 08:49:45;;;;;;;12.40;7.57;;;18.90;83.30;;;;;;5013101;28;20503;-84
2021/04/26 08:52:13;;;;;;;9.18;6.57;;;18.80;83.80;;;;;;5012502;28;20057;-84
2021/04/26 08:54:42;;;;;;;10.93;6.70;;;18.80;84.10;;;;;;5013452;28;20048;-84
2021/04/26 08:57:09;;;;;;;12.90;6.57;;;18.70;84.10;;;;;;5003909;28;20053;-84
2021/04/26 08:59:42;;;;;;;14.25;6.63;;;18.70;84.50;;;;;;5011097;28;20026;-84
2021/04/26 09:02:10;;;;;;;11.60;6.60;;;18.60;84.90;;;;;;5012259;28;20034;-82
2021/04/26 09:04:47;;;;;;;11.45;7.30;;;18.60;85.20;;;;;;5012675;28;20018;-81
2021/04/26 09:07:15;;;;;;;12.05;5.60;;;18.60;85.10;;;;;;5016454;28;20385;-81
2021/04/26 09:09:49;;;;;;;8.63;5.60;;;18.50;85.40;;;;;;5012131;28;20045;-80
2021/04/26 09:12:22;;;;;;;9.38;5.95;;;18.40;85.60;;;;;;5013986;28;20754;-81
2021/04/26 09:14:52;;;;;;;12.60;6.65;;;18.40;85.50;;;;;;5015302;28;20084;-81
2021/04/26 09:17:29;;;;;;;11.65;5.75;;;18.40;85.80;;;;;;5013604;28;20069;-84
2021/04/26 09:20:00;;;;;;;10.88;5.18;;;18.40;85.90;;;;;;5013752;28;20400;-82
2021/04/26 09:22:50;;;;;;;7.20;4.45;;;18.30;86.20;;;;;;5011734;28;20026;-82
2021/04/26 09:25:29;;;;;;;10.30;5.20;;;18.30;86.40;;;;;;5015222;28;20380;-81
2021/04/26 09:28:18;;;;;;;9.68;4.82;;;18.20;86.40;;;;;;5014340;28;20429;-83
2021/04/26 09:30:47;;;;;;;7.63;4.75;;;18.20;86.60;;;;;;5008907;28;20362;-82
2021/04/26 09:33:34;;;;;;;9.02;5.20;;;18.10;86.90;;;;;;5006889;28;20027;-85
2021/04/26 09:36:22;;;;;;;8.48;4.75;;;18.10;86.90;;;;;;5012401;28;20022;-84
2021/04/26 09:38:54;;;;;;;8.10;4.75;;;18.00;87.30;;;;;;5026766;28;20069;-85
2021/04/26 09:41:31;;;;;;;9.90;5.47;;;18.00;87.50;;;;;;5034362;28;20033;-86
2021/04/26 09:44:04;;;;;;;17.33;9.52;;;17.90;88.00;;;;;;5026234;28;20045;-86
2021/04/26 09:46:45;;;;;;;10.27;6.40;;;17.90;88.00;;;;;;5015553;28;20104;-87
2021/04/26 09:49:16;;;;;;;11.40;7.05;;;17.80;88.10;;;;;;5016791;28;20022;-85
2021/04/26 09:51:48;;;;;;;10.05;7.00;;;17.70;88.20;;;;;;5016688;28;20038;-85
2021/04/26 09:54:16;;;;;;;10.77;6.47;;;17.70;88.20;;;;;;5018072;28;20036;-80
2021/04/26 09:56:46;;;;;;;11.75;7.68;;;17.60;88.50;;;;;;5011724;28;20018;-82
2021/04/26 09:59:15;;;;;;;10.82;7.50;;;17.60;88.50;;;;;;5015788;28;20056;-82
2021/04/26 10:01:43;;;;;;;13.30;8.75;;;17.60;88.90;;;;;;5017718;28;20030;-85
2021/04/26 10:04:11;;;;;;;12.90;8.98;;;17.50;89.10;;;;;;5016465;28;20034;-81
2021/04/26 10:06:39;;;;;;;11.85;8.57;;;17.40;89.40;;;;;;5013142;28;20095;-80
2021/04/26 10:09:08;;;;;;;17.50;9.50;;;17.30;89.80;;;;;;5011663;28;20026;-85
2021/04/26 10:11:37;;;;;;;16.13;8.20;;;17.20;90.00;;;;;;5012400;28;20057;-84
2021/04/26 10:14:22;;;;;;;12.95;7.65;;;17.10;90.10;;;;;;5011296;28;20045;-85
2021/04/26 10:16:53;;;;;;;16.98;6.93;;;17.10;90.30;;;;;;5006189;28;20443;-85
2021/04/26 10:19:42;;;;;;;11.43;5.95;;;17.00;90.40;;;;;;5013266;28;20022;-86
2021/04/26 10:22:09;;;;;;;13.25;6.45;;;16.90;90.60;;;;;;5006443;28;20084;-83
2021/04/26 10:24:51;;;;;;;13.38;6.50;;;16.90;90.70;;;;;;5008860;28;20053;-83
2021/04/26 10:27:33;;;;;;;12.30;6.68;;;16.90;90.70;;;;;;5006193;28;20092;-81
2021/04/26 10:30:08;;;;;;;11.18;6.03;;;16.80;90.80;;;;;;5010178;28;20407;-81
2021/04/26 10:32:58;;;;;;;10.30;6.03;;;16.80;90.80;;;;;;5012740;28;20042;-81
2021/04/26 10:35:46;;;;;;;10.43;7.07;;;16.70;91.00;;;;;;5008422;28;20026;-83
2021/04/26 10:38:51;;;;;;;11.85;7.25;;;16.70;91.00;;;;;;5012354;28;20031;-83
2021/04/26 10:41:58;;;;;;;10.60;7.60;;;16.70;91.10;;;;;;4950274;28;20039;-85
2021/04/26 10:44:40;;;;;;;10.73;7.70;;;16.70;91.10;;;;;;4951527;28;20023;-82
2021/04/26 10:47:29;;;;;;;9.20;7.00;;;16.60;91.10;;;;;;4996971;28;20030;-83
2021/04/26 10:50:04;;;;;;;10.65;7.18;;;16.60;91.10;;;;;;5009976;28;20389;-83
2021/04/26 10:52:36;;;;;;;12.73;7.10;;;16.60;91.10;;;;;;5011164;28;20072;-83
2021/04/26 10:55:11;;;;;;;12.20;7.13;;;16.50;91.30;;;;;;5009074;28;20089;-84
2021/04/26 10:57:44;;;;;;;9.65;7.30;;;16.50;91.40;;;;;;5011559;28;20026;-82
2021/04/26 11:00:27;;;;;;;13.23;7.13;;;16.50;91.40;;;;;;5011142;28;20435;-85
2021/04/26 11:03:09;;;;;;;8.60;6.78;;;16.40;91.30;;;;;;5008434;28;20029;-84
2021/04/26 11:05:43;;;;;;;12.68;7.10;;;16.40;91.40;;;;;;5012413;28;20076;-84
2021/04/26 11:08:35;;;;;;;13.27;6.93;;;16.30;91.50;;;;;;5012099;28;20025;-85
2021/04/26 11:11:15;;;;;;;10.75;7.32;;;16.30;91.50;;;;;;5008184;28;20096;-86
2021/04/26 11:13:50;;;;;;;11.13;6.82;;;16.20;91.60;;;;;;5008061;28;20033;-80
2021/04/26 11:16:23;;;;;;;11.82;7.10;;;16.10;91.70;;;;;;5011646;28;20030;-81
2021/04/26 11:19:00;;;;;;;12.15;6.47;;;16.10;91.70;;;;;;5009731;28;20816;-80
2021/04/26 11:21:48;;;;;;;12.98;6.72;;;16.10;91.70;;;;;;5007741;28;20030;-80
2021/04/26 11:24:25;;;;;;;10.45;7.03;;;16.00;91.70;;;;;;5010973;28;20110;-86
2021/04/26 11:27:11;;;;;;;9.43;6.47;;;15.90;92.00;;;;;;5009300;28;20038;-84
2021/04/26 11:29:49;;;;;;;11.52;7.00;;;15.90;92.20;;;;;;5008500;28;20537;-84
2021/04/26 11:32:18;;;;;;;11.82;6.93;;;15.90;92.20;;;;;;5017011;28;20033;-83
2021/04/26 11:34:50;;;;;;;9.40;6.38;;;15.80;92.20;;;;;;5023840;28;20032;-84
2021/04/26 11:37:21;;;;;;;12.80;7.32;;;15.80;92.20;;;;;;5009629;28;20029;-84
2021/04/26 11:39:50;;;;;;;8.82;6.43;;;15.80;92.10;;;;;;5011629;28;20018;-85
2021/04/26 11:42:27;;;;;;;9.10;6.88;;;15.80;92.20;;;;;;5009198;28;20033;-84
2021/04/26 11:44:58;;;;;;;11.52;7.20;;;15.70;92.10;;;;;;5009199;28;20034;-85
2021/04/26 11:47:26;;;;;;;11.20;6.80;;;15.70;92.10;;;;;;5011876;28;20075;-84
2021/04/26 11:50:03;;;;;;;10.98;7.28;;;15.60;92.20;;;;;;5009671;28;20412;-84
2021/04/26 11:52:35;;;;;;;10.43;6.90;;;15.60;92.30;;;;;;5012918;28;20029;-85
2021/04/26 11:55:05;;;;;;;15.98;9.43;;;15.60;92.30;;;;;;5013005;28;20017;-84
2021/04/26 11:58:02;;;;;;;10.77;7.47;;;15.50;92.30;;;;;;5010293;28;20048;-84
2021/04/26 12:00:32;;;;;;;11.88;7.82;;;15.40;92.50;;;;;;5005114;28;20060;-86
2021/04/26 12:03:11;;;;;;;9.55;7.18;;;15.40;92.50;;;;;;5010874;28;20030;-84
2021/04/26 12:05:38;;;;;;;12.50;6.95;;;15.40;92.50;;;;;;5010427;28;20039;-85
2021/04/26 12:08:07;;;;;;;10.18;7.00;;;15.30;92.70;;;;;;5010152;28;20022;-85
2021/04/26 12:10:40;;;;;;;10.77;6.97;;;15.30;92.90;;;;;;5006439;28;20029;-85
2021/04/26 12:13:09;;;;;;;12.63;7.78;;;15.40;92.90;;;;;;5006960;28;20065;-85
2021/04/26 12:15:39;;;;;;;13.82;8.05;;;15.30;93.00;;;;;;5010092;28;20045;-86
2021/04/26 12:18:08;;;;;;;12.95;8.13;;;15.30;93.30;;;;;;5009559;28;20125;-85
2021/04/26 12:20:39;;;;;;;14.45;8.52;;;15.30;93.30;;;;;;5009173;28;20388;-85
2021/04/26 12:23:15;;;;;;;8.90;6.90;;;15.30;93.30;;;;;;5008695;28;20030;-85
2021/04/26 12:25:49;;;;;;;12.25;7.88;;;15.30;93.40;;;;;;5007248;28;20021;-85
2021/04/26 12:28:17;;;;;;;13.75;8.95;;;15.30;93.70;;;;;;5010933;28;20470;-86
2021/04/26 12:30:53;;;;;;;14.57;7.47;;;15.20;93.30;;;;;;5012097;28;20489;-85
2021/04/26 12:33:26;;;;;;;14.05;10.02;;;15.20;93.50;;;;;;5007673;28;20045;-84
2021/04/26 12:35:55;;;;;;;12.18;7.22;;;15.20;93.50;;;;;;5007117;28;20042;-84
2021/04/26 12:38:27;;;;;;;13.75;7.22;;;15.20;93.40;;;;;;5006206;28;20465;-85
2021/04/26 12:40:57;;;;;;;11.80;6.55;;;15.20;93.50;;;;;;5004191;28;20085;-85
2021/04/26 12:43:36;;;;;;;12.57;7.22;;;15.10;93.60;;;;;;5014552;28;20444;-84
2021/04/26 12:46:08;;;;;;;11.20;7.05;;;15.10;93.90;;;;;;5009672;28;20038;-84
2021/04/26 12:48:38;;;;;;;10.30;8.32;;;15.10;94.10;;;;;;5012605;28;20029;-83
2021/04/26 12:51:07;;;;;;;12.77;7.15;;;15.00;94.30;;;;;;5013188;28;20026;-84
2021/04/26 12:53:37;;;;;;;10.82;7.10;;;15.00;94.50;;;;;;5016099;28;20037;-84
2021/04/26 12:56:17;;;;;;;11.40;8.20;;;15.00;94.70;;;;;;5031496;28;20034;-84
2021/04/26 12:58:54;;;;;;;9.27;7.45;;;15.00;94.80;;;;;;5029401;28;20030;-84
2021/04/26 13:02:00;;;;;;;15.13;7.72;;;15.00;95.00;;;;;;5018223;28;20026;-85